BEL5TR EBBR-DTMB
Flight info
| Callsign | BEL5TR |
|---|---|
| Flight time | 2h 22m |
| Altitude | 37000 |
| Route | ROUSY DCT GTQ DCT DEVDI DCT ODINA DCT BETEN DCT ELB DCT VELAD DCT PININ DCT TUNEX/N0439F380 DCT ATLEL ATLEL1R |
| Aircraft | A320/M-SDE3FGHIRWY/LB1 |
Departure
| Time | 2026-04-17 07:51 |
|---|---|
| Airport | Brussels Airport (EBBR) |
Arrival
| Time | 2026-04-17 10:14 |
|---|---|
| Airport | Monastir Habib Bourguiba International Airport (DTMB) |
| Time | Latitude | Longitude | Altitude | Speed | Heading |
|---|---|---|---|---|---|
| 2026-04-17 07:27 | 50.89941 | 4.48675 | 131 ft | 0 kts | 335° |
| 2026-04-17 07:40 | 50.89939 | 4.48677 | 130 ft | 2 kts | 335° |
| 2026-04-17 07:41 | 50.89923 | 4.48688 | 126 ft | 4 kts | 335° |
| 2026-04-17 07:41 | 50.89898 | 4.48706 | 132 ft | 4 kts | 337° |
| 2026-04-17 07:41 | 50.89873 | 4.48722 | 134 ft | 4 kts | 342° |
| 2026-04-17 07:41 | 50.89848 | 4.48730 | 135 ft | 4 kts | 7° |
| 2026-04-17 07:42 | 50.89832 | 4.48720 | 136 ft | 1 kts | 65° |
| 2026-04-17 07:44 | 50.89833 | 4.48723 | 136 ft | 2 kts | 65° |
| 2026-04-17 07:44 | 50.89852 | 4.48789 | 136 ft | 10 kts | 65° |
| 2026-04-17 07:44 | 50.89880 | 4.48886 | 136 ft | 10 kts | 65° |
| 2026-04-17 07:44 | 50.89914 | 4.49004 | 136 ft | 10 kts | 65° |
| 2026-04-17 07:45 | 50.89943 | 4.49104 | 136 ft | 12 kts | 64° |
| 2026-04-17 07:45 | 50.89983 | 4.49275 | 133 ft | 19 kts | 70° |
| 2026-04-17 07:45 | 50.90046 | 4.49466 | 130 ft | 20 kts | 63° |
| 2026-04-17 07:45 | 50.90106 | 4.49649 | 131 ft | 18 kts | 63° |
| 2026-04-17 07:46 | 50.90163 | 4.49823 | 129 ft | 19 kts | 63° |
| 2026-04-17 07:46 | 50.90235 | 4.50043 | 127 ft | 22 kts | 62° |
| 2026-04-17 07:46 | 50.90308 | 4.50229 | 127 ft | 19 kts | 42° |
| 2026-04-17 07:46 | 50.90427 | 4.50297 | 123 ft | 18 kts | 14° |
| 2026-04-17 07:47 | 50.90554 | 4.50348 | 118 ft | 19 kts | 14° |
| 2026-04-17 07:47 | 50.90690 | 4.50405 | 120 ft | 23 kts | 14° |
| 2026-04-17 07:47 | 50.90849 | 4.50470 | 118 ft | 23 kts | 14° |
| 2026-04-17 07:47 | 50.90993 | 4.50531 | 117 ft | 20 kts | 14° |
| 2026-04-17 07:48 | 50.91088 | 4.50526 | 119 ft | 11 kts | 354° |
| 2026-04-17 07:48 | 50.91143 | 4.50516 | 116 ft | 5 kts | 350° |
| 2026-04-17 07:48 | 50.91157 | 4.50510 | 118 ft | 0 kts | 341° |
| 2026-04-17 07:49 | 50.91161 | 4.50508 | 118 ft | 4 kts | 341° |
| 2026-04-17 07:49 | 50.91216 | 4.50446 | 120 ft | 12 kts | 306° |
| 2026-04-17 07:49 | 50.91239 | 4.50318 | 119 ft | 14 kts | 279° |
| 2026-04-17 07:50 | 50.91227 | 4.50188 | 118 ft | 7 kts | 246° |
| 2026-04-17 07:50 | 50.91216 | 4.50149 | 117 ft | 2 kts | 246° |
| 2026-04-17 07:50 | 50.91195 | 4.50075 | 117 ft | 26 kts | 246° |
| 2026-04-17 07:50 | 50.91011 | 4.49444 | 117 ft | 96 kts | 245° |
| 2026-04-17 07:51 | 50.90651 | 4.48201 | 122 ft | 149 kts | 245° |
| 2026-04-17 07:51 | 50.90179 | 4.46589 | 420 ft | 167 kts | 244° |
| 2026-04-17 07:51 | 50.89686 | 4.44869 | 1030 ft | 174 kts | 245° |
| 2026-04-17 07:51 | 50.89197 | 4.43105 | 1669 ft | 179 kts | 245° |
| 2026-04-17 07:52 | 50.88435 | 4.41469 | 2047 ft | 196 kts | 214° |
| 2026-04-17 07:52 | 50.87075 | 4.40905 | 2333 ft | 219 kts | 172° |
| 2026-04-17 07:52 | 50.85669 | 4.42064 | 2693 ft | 245 kts | 136° |
| 2026-04-17 07:52 | 50.84599 | 4.44262 | 3382 ft | 257 kts | 123° |
| 2026-04-17 07:53 | 50.83676 | 4.46717 | 4261 ft | 261 kts | 121° |
| 2026-04-17 07:53 | 50.82759 | 4.49215 | 5154 ft | 263 kts | 123° |
| 2026-04-17 07:53 | 50.81720 | 4.51617 | 6026 ft | 266 kts | 128° |
| 2026-04-17 07:53 | 50.80593 | 4.53904 | 6862 ft | 269 kts | 130° |
| 2026-04-17 07:54 | 50.79385 | 4.56187 | 7636 ft | 272 kts | 133° |
| 2026-04-17 07:54 | 50.78123 | 4.58481 | 8416 ft | 277 kts | 134° |
| 2026-04-17 07:54 | 50.76848 | 4.60767 | 9168 ft | 283 kts | 134° |
| 2026-04-17 07:54 | 50.75530 | 4.63123 | 9938 ft | 287 kts | 134° |
| 2026-04-17 07:55 | 50.74189 | 4.65517 | 10553 ft | 297 kts | 135° |
| 2026-04-17 07:55 | 50.72763 | 4.68059 | 10761 ft | 321 kts | 134° |
| 2026-04-17 07:55 | 50.71245 | 4.70771 | 11147 ft | 335 kts | 134° |
| 2026-04-17 07:55 | 50.69824 | 4.73742 | 11784 ft | 344 kts | 123° |
| 2026-04-17 07:56 | 50.68799 | 4.77204 | 12464 ft | 352 kts | 111° |
| 2026-04-17 07:56 | 50.68114 | 4.80937 | 13150 ft | 356 kts | 108° |
| 2026-04-17 07:56 | 50.67436 | 4.84723 | 13834 ft | 361 kts | 108° |
| 2026-04-17 07:56 | 50.66667 | 4.88499 | 14452 ft | 363 kts | 115° |
| 2026-04-17 07:57 | 50.65480 | 4.91999 | 15019 ft | 364 kts | 127° |
| 2026-04-17 07:57 | 50.63867 | 4.95079 | 15618 ft | 364 kts | 138° |
| 2026-04-17 07:57 | 50.62070 | 4.97840 | 16204 ft | 367 kts | 139° |
| 2026-04-17 07:57 | 50.60232 | 5.00674 | 16793 ft | 371 kts | 138° |
| 2026-04-17 07:58 | 50.58380 | 5.03542 | 17371 ft | 375 kts | 138° |
| 2026-04-17 07:58 | 50.56505 | 5.06453 | 17951 ft | 379 kts | 138° |
| 2026-04-17 07:58 | 50.54618 | 5.09381 | 18508 ft | 383 kts | 138° |
| 2026-04-17 07:58 | 50.52711 | 5.12328 | 18997 ft | 386 kts | 138° |
| 2026-04-17 07:59 | 50.50781 | 5.15302 | 19471 ft | 391 kts | 138° |
| 2026-04-17 07:59 | 50.48833 | 5.18299 | 19977 ft | 394 kts | 138° |
| 2026-04-17 07:59 | 50.46882 | 5.21302 | 20488 ft | 397 kts | 138° |
| 2026-04-17 07:59 | 50.44897 | 5.24353 | 21003 ft | 400 kts | 138° |
| 2026-04-17 08:00 | 50.42901 | 5.27417 | 21513 ft | 403 kts | 138° |
| 2026-04-17 08:00 | 50.40883 | 5.30508 | 22025 ft | 406 kts | 138° |
| 2026-04-17 08:00 | 50.38878 | 5.33575 | 22526 ft | 409 kts | 138° |
| 2026-04-17 08:00 | 50.36831 | 5.36702 | 23020 ft | 412 kts | 138° |
| 2026-04-17 08:01 | 50.34762 | 5.39860 | 23495 ft | 415 kts | 138° |
| 2026-04-17 08:01 | 50.32678 | 5.43039 | 23953 ft | 418 kts | 138° |
| 2026-04-17 08:01 | 50.30582 | 5.46231 | 24338 ft | 421 kts | 138° |
| 2026-04-17 08:01 | 50.28493 | 5.49402 | 24700 ft | 424 kts | 138° |
| 2026-04-17 08:02 | 50.26366 | 5.52630 | 25094 ft | 426 kts | 137° |
| 2026-04-17 08:02 | 50.24232 | 5.55870 | 25444 ft | 430 kts | 137° |
| 2026-04-17 08:02 | 50.22079 | 5.59134 | 25796 ft | 433 kts | 137° |
| 2026-04-17 08:02 | 50.19910 | 5.62418 | 26149 ft | 435 kts | 137° |
| 2026-04-17 08:03 | 50.17722 | 5.65725 | 26493 ft | 438 kts | 137° |
| 2026-04-17 08:03 | 50.15559 | 5.68991 | 26835 ft | 440 kts | 137° |
| 2026-04-17 08:03 | 50.13347 | 5.72324 | 27173 ft | 443 kts | 137° |
| 2026-04-17 08:03 | 50.11129 | 5.75660 | 27508 ft | 445 kts | 137° |
| 2026-04-17 08:04 | 50.08751 | 5.78767 | 27829 ft | 446 kts | 147° |
| 2026-04-17 08:04 | 50.06082 | 5.81261 | 28145 ft | 446 kts | 156° |
| 2026-04-17 08:04 | 50.03201 | 5.83082 | 28448 ft | 446 kts | 163° |
| 2026-04-17 08:04 | 50.00248 | 5.84599 | 28776 ft | 448 kts | 163° |
| 2026-04-17 08:05 | 49.97311 | 5.86105 | 29082 ft | 450 kts | 163° |
| 2026-04-17 08:05 | 49.94324 | 5.87641 | 29378 ft | 452 kts | 163° |
| 2026-04-17 08:05 | 49.91316 | 5.89189 | 29669 ft | 455 kts | 163° |
| 2026-04-17 08:05 | 49.88301 | 5.90742 | 29951 ft | 457 kts | 163° |
| 2026-04-17 08:06 | 49.85308 | 5.92285 | 30230 ft | 459 kts | 163° |
| 2026-04-17 08:06 | 49.82257 | 5.93856 | 30470 ft | 461 kts | 163° |
| 2026-04-17 08:06 | 49.79205 | 5.95426 | 30699 ft | 462 kts | 164° |
| 2026-04-17 08:06 | 49.76138 | 5.97001 | 30933 ft | 464 kts | 164° |
| 2026-04-17 08:07 | 49.73104 | 5.98557 | 31152 ft | 465 kts | 164° |
| 2026-04-17 08:07 | 49.70010 | 6.00137 | 31384 ft | 466 kts | 164° |
| 2026-04-17 08:07 | 49.66949 | 6.01696 | 31694 ft | 466 kts | 164° |
| 2026-04-17 08:07 | 49.63875 | 6.03259 | 31997 ft | 465 kts | 164° |
| 2026-04-17 08:08 | 49.60789 | 6.04826 | 32297 ft | 464 kts | 164° |
| 2026-04-17 08:08 | 49.57718 | 6.06387 | 32581 ft | 464 kts | 164° |
| 2026-04-17 08:08 | 49.54676 | 6.07937 | 32892 ft | 463 kts | 165° |
| 2026-04-17 08:08 | 49.51607 | 6.09496 | 33195 ft | 462 kts | 164° |
| 2026-04-17 08:09 | 49.48595 | 6.11350 | 33481 ft | 464 kts | 156° |
| 2026-04-17 08:09 | 49.45819 | 6.13855 | 33765 ft | 467 kts | 147° |
| 2026-04-17 08:09 | 49.43257 | 6.16938 | 34040 ft | 468 kts | 143° |
| 2026-04-17 08:09 | 49.40730 | 6.20089 | 34306 ft | 468 kts | 143° |
| 2026-04-17 08:10 | 49.38229 | 6.23187 | 34544 ft | 467 kts | 143° |
| 2026-04-17 08:10 | 49.35691 | 6.26316 | 34769 ft | 467 kts | 143° |
| 2026-04-17 08:10 | 49.33150 | 6.29442 | 34963 ft | 468 kts | 143° |
| 2026-04-17 08:10 | 49.30597 | 6.32582 | 35174 ft | 468 kts | 143° |
| 2026-04-17 08:11 | 49.28079 | 6.35683 | 35381 ft | 468 kts | 143° |
| 2026-04-17 08:11 | 49.25531 | 6.38819 | 35600 ft | 468 kts | 143° |
| 2026-04-17 08:11 | 49.22994 | 6.41938 | 35805 ft | 467 kts | 143° |
| 2026-04-17 08:11 | 49.20452 | 6.45054 | 36012 ft | 467 kts | 144° |
| 2026-04-17 08:12 | 49.17944 | 6.48119 | 36208 ft | 467 kts | 144° |
| 2026-04-17 08:12 | 49.15407 | 6.51220 | 36402 ft | 467 kts | 144° |
| 2026-04-17 08:12 | 49.12876 | 6.54317 | 36593 ft | 466 kts | 144° |
| 2026-04-17 08:12 | 49.10329 | 6.57427 | 36761 ft | 466 kts | 144° |
| 2026-04-17 08:13 | 49.07819 | 6.60485 | 36959 ft | 465 kts | 144° |
| 2026-04-17 08:13 | 49.05283 | 6.63571 | 37165 ft | 464 kts | 144° |
| 2026-04-17 08:14 | 48.97503 | 6.72322 | 37237 ft | 460 kts | 155° |
| 2026-04-17 08:14 | 48.91721 | 6.76343 | 37236 ft | 458 kts | 159° |
| 2026-04-17 08:15 | 48.85895 | 6.80315 | 37231 ft | 458 kts | 159° |
| 2026-04-17 08:15 | 48.80096 | 6.84269 | 37237 ft | 458 kts | 159° |
| 2026-04-17 08:16 | 48.74265 | 6.88230 | 37238 ft | 458 kts | 159° |
| 2026-04-17 08:16 | 48.68455 | 6.92150 | 37240 ft | 458 kts | 159° |
| 2026-04-17 08:17 | 48.62609 | 6.96082 | 37250 ft | 459 kts | 159° |
| 2026-04-17 08:17 | 48.56806 | 7.00001 | 37244 ft | 459 kts | 159° |
| 2026-04-17 08:18 | 48.50965 | 7.03931 | 37236 ft | 459 kts | 159° |
| 2026-04-17 08:18 | 48.45117 | 7.07857 | 37235 ft | 460 kts | 159° |
| 2026-04-17 08:19 | 48.39256 | 7.11766 | 37233 ft | 460 kts | 159° |
| 2026-04-17 08:19 | 48.33404 | 7.15660 | 37245 ft | 459 kts | 159° |
| 2026-04-17 08:20 | 48.27575 | 7.19534 | 37245 ft | 459 kts | 159° |
| 2026-04-17 08:20 | 48.21753 | 7.23399 | 37250 ft | 459 kts | 159° |
| 2026-04-17 08:21 | 48.15890 | 7.27284 | 37252 ft | 459 kts | 159° |
| 2026-04-17 08:21 | 48.10055 | 7.31138 | 37251 ft | 460 kts | 159° |
| 2026-04-17 08:22 | 48.04196 | 7.34990 | 37253 ft | 460 kts | 159° |
| 2026-04-17 08:22 | 47.98323 | 7.38841 | 37239 ft | 460 kts | 159° |
| 2026-04-17 08:23 | 47.92462 | 7.42684 | 37245 ft | 460 kts | 159° |
| 2026-04-17 08:23 | 47.86575 | 7.46532 | 37248 ft | 460 kts | 159° |
| 2026-04-17 08:24 | 47.80714 | 7.50347 | 37252 ft | 460 kts | 159° |
| 2026-04-17 08:24 | 47.74851 | 7.54149 | 37248 ft | 460 kts | 159° |
| 2026-04-17 08:25 | 47.68998 | 7.58082 | 37259 ft | 461 kts | 157° |
| 2026-04-17 08:25 | 47.63261 | 7.62200 | 37259 ft | 461 kts | 156° |
| 2026-04-17 08:26 | 47.57452 | 7.66372 | 37261 ft | 461 kts | 156° |
| 2026-04-17 08:26 | 47.51668 | 7.70430 | 37247 ft | 461 kts | 157° |
| 2026-04-17 08:27 | 47.45887 | 7.74465 | 37251 ft | 461 kts | 157° |
| 2026-04-17 08:27 | 47.40082 | 7.78513 | 37264 ft | 461 kts | 157° |
| 2026-04-17 08:28 | 47.34285 | 7.82545 | 37265 ft | 461 kts | 157° |
| 2026-04-17 08:28 | 47.29455 | 7.85897 | 37255 ft | 460 kts | 157° |
| 2026-04-17 08:29 | 47.23657 | 7.89921 | 37258 ft | 460 kts | 157° |
| 2026-04-17 08:29 | 47.17857 | 7.93938 | 37260 ft | 460 kts | 157° |
| 2026-04-17 08:30 | 47.12095 | 7.97916 | 37256 ft | 460 kts | 157° |
| 2026-04-17 08:30 | 47.06284 | 8.01908 | 37254 ft | 460 kts | 157° |
| 2026-04-17 08:31 | 47.00499 | 8.05870 | 37253 ft | 459 kts | 157° |
| 2026-04-17 08:31 | 46.94706 | 8.09838 | 37255 ft | 459 kts | 157° |
| 2026-04-17 08:32 | 46.88905 | 8.13806 | 37244 ft | 459 kts | 157° |
| 2026-04-17 08:32 | 46.83146 | 8.17725 | 37238 ft | 459 kts | 157° |
| 2026-04-17 08:33 | 46.77341 | 8.21669 | 37231 ft | 459 kts | 157° |
| 2026-04-17 08:33 | 46.71532 | 8.25608 | 37227 ft | 460 kts | 157° |
| 2026-04-17 08:34 | 46.65758 | 8.29523 | 37219 ft | 460 kts | 157° |
| 2026-04-17 08:34 | 46.59957 | 8.33441 | 37228 ft | 460 kts | 157° |
| 2026-04-17 08:35 | 46.54160 | 8.37350 | 37240 ft | 459 kts | 157° |
| 2026-04-17 08:35 | 46.48347 | 8.41252 | 37233 ft | 459 kts | 157° |
| 2026-04-17 08:36 | 46.42536 | 8.45150 | 37241 ft | 459 kts | 157° |
| 2026-04-17 08:36 | 46.36755 | 8.49012 | 37232 ft | 459 kts | 157° |
| 2026-04-17 08:37 | 46.30951 | 8.52884 | 37226 ft | 460 kts | 157° |
| 2026-04-17 08:37 | 46.25141 | 8.56746 | 37222 ft | 460 kts | 157° |
| 2026-04-17 08:38 | 46.19320 | 8.60601 | 37211 ft | 460 kts | 157° |
| 2026-04-17 08:38 | 46.13497 | 8.64469 | 37210 ft | 460 kts | 157° |
| 2026-04-17 08:39 | 46.07547 | 8.67823 | 37204 ft | 458 kts | 165° |
| 2026-04-17 08:39 | 46.01472 | 8.70557 | 37200 ft | 458 kts | 165° |
| 2026-04-17 08:40 | 45.95392 | 8.73290 | 37221 ft | 459 kts | 165° |
| 2026-04-17 08:40 | 45.89302 | 8.76021 | 37217 ft | 459 kts | 164° |
| 2026-04-17 08:41 | 45.83186 | 8.78768 | 37211 ft | 460 kts | 164° |
| 2026-04-17 08:41 | 45.77068 | 8.81511 | 37205 ft | 460 kts | 164° |
| 2026-04-17 08:42 | 45.70985 | 8.84230 | 37207 ft | 459 kts | 164° |
| 2026-04-17 08:42 | 45.64887 | 8.86949 | 37200 ft | 459 kts | 164° |
| 2026-04-17 08:43 | 45.58770 | 8.89676 | 37196 ft | 459 kts | 164° |
| 2026-04-17 08:43 | 45.52699 | 8.92371 | 37201 ft | 459 kts | 164° |
| 2026-04-17 08:44 | 45.46585 | 8.95082 | 37197 ft | 459 kts | 164° |
| 2026-04-17 08:44 | 45.40483 | 8.97775 | 37193 ft | 458 kts | 164° |
| 2026-04-17 08:45 | 45.34415 | 9.00449 | 37191 ft | 459 kts | 164° |
| 2026-04-17 08:45 | 45.28288 | 9.03142 | 37188 ft | 459 kts | 164° |
| 2026-04-17 08:46 | 45.22194 | 9.05821 | 37193 ft | 460 kts | 164° |
| 2026-04-17 08:46 | 45.16081 | 9.08505 | 37189 ft | 460 kts | 164° |
| 2026-04-17 08:47 | 45.09996 | 9.11164 | 37191 ft | 460 kts | 164° |
| 2026-04-17 08:47 | 45.03871 | 9.13832 | 37193 ft | 460 kts | 164° |
| 2026-04-17 08:48 | 44.97741 | 9.16490 | 37182 ft | 460 kts | 164° |
| 2026-04-17 08:48 | 44.91667 | 9.19128 | 37190 ft | 460 kts | 164° |
| 2026-04-17 08:49 | 44.85511 | 9.21793 | 37182 ft | 460 kts | 164° |
| 2026-04-17 08:49 | 44.79426 | 9.24425 | 37177 ft | 460 kts | 164° |
| 2026-04-17 08:50 | 44.73271 | 9.27078 | 37179 ft | 460 kts | 164° |
| 2026-04-17 08:50 | 44.67164 | 9.29715 | 37167 ft | 460 kts | 164° |
| 2026-04-17 08:51 | 44.61034 | 9.32336 | 37153 ft | 460 kts | 164° |
| 2026-04-17 08:51 | 44.54899 | 9.34956 | 37163 ft | 461 kts | 164° |
| 2026-04-17 08:52 | 44.48750 | 9.37588 | 37165 ft | 460 kts | 164° |
| 2026-04-17 08:52 | 44.42627 | 9.40206 | 37158 ft | 460 kts | 164° |
| 2026-04-17 08:53 | 44.36484 | 9.42818 | 37156 ft | 460 kts | 164° |
| 2026-04-17 08:53 | 44.30355 | 9.45419 | 37155 ft | 460 kts | 164° |
| 2026-04-17 08:54 | 44.24224 | 9.48014 | 37160 ft | 460 kts | 164° |
| 2026-04-17 08:54 | 44.18104 | 9.50608 | 37152 ft | 460 kts | 164° |
| 2026-04-17 08:55 | 44.11999 | 9.53179 | 37151 ft | 460 kts | 164° |
| 2026-04-17 08:55 | 44.05858 | 9.55761 | 37152 ft | 460 kts | 164° |
| 2026-04-17 08:56 | 43.99730 | 9.58341 | 37146 ft | 460 kts | 164° |
| 2026-04-17 08:56 | 43.93621 | 9.60911 | 37152 ft | 460 kts | 164° |
| 2026-04-17 08:57 | 43.87459 | 9.63473 | 37151 ft | 460 kts | 164° |
| 2026-04-17 08:57 | 43.81350 | 9.66017 | 37149 ft | 460 kts | 164° |
| 2026-04-17 08:58 | 43.75243 | 9.68568 | 37155 ft | 460 kts | 164° |
| 2026-04-17 08:58 | 43.69085 | 9.71126 | 37153 ft | 460 kts | 164° |
| 2026-04-17 08:59 | 43.62971 | 9.73658 | 37154 ft | 460 kts | 164° |
| 2026-04-17 08:59 | 43.56861 | 9.76200 | 37155 ft | 460 kts | 161° |
| 2026-04-17 09:00 | 43.51120 | 9.80077 | 37155 ft | 460 kts | 150° |
| 2026-04-17 09:00 | 43.45552 | 9.84395 | 37163 ft | 460 kts | 151° |
| 2026-04-17 09:01 | 43.39968 | 9.88687 | 37161 ft | 460 kts | 150° |
| 2026-04-17 09:01 | 43.34396 | 9.92969 | 37151 ft | 460 kts | 150° |
| 2026-04-17 09:02 | 43.28801 | 9.97274 | 37152 ft | 460 kts | 150° |
| 2026-04-17 09:02 | 43.23234 | 10.01539 | 37158 ft | 459 kts | 150° |
| 2026-04-17 09:03 | 43.17622 | 10.05820 | 37141 ft | 459 kts | 150° |
| 2026-04-17 09:03 | 43.12063 | 10.10059 | 37148 ft | 459 kts | 150° |
| 2026-04-17 09:04 | 43.06478 | 10.14317 | 37147 ft | 459 kts | 150° |
| 2026-04-17 09:04 | 43.00907 | 10.18553 | 37141 ft | 459 kts | 150° |
| 2026-04-17 09:05 | 42.95325 | 10.22794 | 37144 ft | 459 kts | 150° |
| 2026-04-17 09:05 | 42.89726 | 10.27033 | 37148 ft | 458 kts | 150° |
| 2026-04-17 09:06 | 42.84145 | 10.31238 | 37136 ft | 458 kts | 150° |
| 2026-04-17 09:06 | 42.78569 | 10.35430 | 37148 ft | 458 kts | 150° |
| 2026-04-17 09:07 | 42.72972 | 10.39569 | 37136 ft | 458 kts | 154° |
| 2026-04-17 09:07 | 42.67060 | 10.42858 | 37132 ft | 458 kts | 158° |
| 2026-04-17 09:08 | 42.61142 | 10.46083 | 37127 ft | 458 kts | 158° |
| 2026-04-17 09:08 | 42.55247 | 10.49299 | 37138 ft | 458 kts | 157° |
| 2026-04-17 09:09 | 42.49311 | 10.52545 | 37138 ft | 458 kts | 157° |
| 2026-04-17 09:09 | 42.43410 | 10.55754 | 37137 ft | 458 kts | 157° |
| 2026-04-17 09:10 | 42.34529 | 10.60563 | 37139 ft | 458 kts | 157° |
| 2026-04-17 09:10 | 42.28609 | 10.63756 | 37135 ft | 458 kts | 157° |
| 2026-04-17 09:11 | 42.22697 | 10.66952 | 37135 ft | 458 kts | 157° |
| 2026-04-17 09:11 | 42.17764 | 10.69601 | 37134 ft | 458 kts | 157° |
| 2026-04-17 09:12 | 42.10860 | 10.73300 | 37119 ft | 458 kts | 157° |
| 2026-04-17 09:12 | 42.05895 | 10.75840 | 37124 ft | 459 kts | 163° |
| 2026-04-17 09:13 | 41.99618 | 10.77265 | 37123 ft | 459 kts | 173° |
| 2026-04-17 09:13 | 41.93253 | 10.78283 | 37117 ft | 459 kts | 173° |
| 2026-04-17 09:14 | 41.86924 | 10.79309 | 37121 ft | 460 kts | 172° |
| 2026-04-17 09:14 | 41.80571 | 10.80336 | 37117 ft | 460 kts | 172° |
| 2026-04-17 09:15 | 41.74202 | 10.81370 | 37116 ft | 460 kts | 172° |
| 2026-04-17 09:15 | 41.67829 | 10.82402 | 37114 ft | 460 kts | 172° |
| 2026-04-17 09:16 | 41.61482 | 10.83427 | 37112 ft | 461 kts | 172° |
| 2026-04-17 09:16 | 41.55108 | 10.84440 | 37112 ft | 461 kts | 172° |
| 2026-04-17 09:17 | 41.48747 | 10.85449 | 37111 ft | 461 kts | 172° |
| 2026-04-17 09:17 | 41.42354 | 10.86473 | 37112 ft | 462 kts | 172° |
| 2026-04-17 09:18 | 41.36004 | 10.87494 | 37104 ft | 462 kts | 172° |
| 2026-04-17 09:18 | 41.29620 | 10.88512 | 37105 ft | 462 kts | 172° |
| 2026-04-17 09:19 | 41.23243 | 10.89525 | 37115 ft | 463 kts | 172° |
| 2026-04-17 09:19 | 41.16855 | 10.90546 | 37110 ft | 463 kts | 172° |
| 2026-04-17 09:20 | 41.10426 | 10.91557 | 37112 ft | 464 kts | 172° |
| 2026-04-17 09:20 | 41.04029 | 10.92568 | 37117 ft | 464 kts | 172° |
| 2026-04-17 09:21 | 40.97636 | 10.93575 | 37115 ft | 464 kts | 171° |
| 2026-04-17 09:21 | 40.91182 | 10.94590 | 37118 ft | 465 kts | 172° |
| 2026-04-17 09:22 | 40.84769 | 10.95591 | 37117 ft | 465 kts | 171° |
| 2026-04-17 09:22 | 40.78358 | 10.96593 | 37124 ft | 465 kts | 171° |
| 2026-04-17 09:23 | 40.71944 | 10.97604 | 37124 ft | 464 kts | 171° |
| 2026-04-17 09:23 | 40.65551 | 10.98599 | 37122 ft | 464 kts | 171° |
| 2026-04-17 09:24 | 40.59124 | 10.99597 | 37120 ft | 464 kts | 171° |
| 2026-04-17 09:24 | 40.52707 | 11.00592 | 37118 ft | 464 kts | 171° |
| 2026-04-17 09:25 | 40.46287 | 11.01594 | 37117 ft | 464 kts | 171° |
| 2026-04-17 09:25 | 40.39900 | 11.02584 | 37115 ft | 464 kts | 171° |
| 2026-04-17 09:26 | 40.33500 | 11.03569 | 37126 ft | 464 kts | 171° |
| 2026-04-17 09:26 | 40.27065 | 11.04558 | 37125 ft | 464 kts | 171° |
| 2026-04-17 09:27 | 40.20670 | 11.05543 | 37122 ft | 464 kts | 171° |
| 2026-04-17 09:27 | 40.14229 | 11.06543 | 37121 ft | 464 kts | 171° |
| 2026-04-17 09:28 | 40.07850 | 11.07520 | 37121 ft | 464 kts | 171° |
| 2026-04-17 09:28 | 40.01433 | 11.08496 | 37122 ft | 464 kts | 171° |
| 2026-04-17 09:29 | 39.95045 | 11.09477 | 37120 ft | 464 kts | 171° |
| 2026-04-17 09:29 | 39.88636 | 11.10459 | 37129 ft | 464 kts | 171° |
| 2026-04-17 09:30 | 39.82203 | 11.11441 | 37127 ft | 464 kts | 171° |
| 2026-04-17 09:30 | 39.75817 | 11.12406 | 37128 ft | 463 kts | 171° |
| 2026-04-17 09:31 | 39.69392 | 11.13381 | 37131 ft | 463 kts | 171° |
| 2026-04-17 09:31 | 39.63009 | 11.14347 | 37132 ft | 462 kts | 171° |
| 2026-04-17 09:32 | 39.56636 | 11.15303 | 37134 ft | 462 kts | 171° |
| 2026-04-17 09:32 | 39.50215 | 11.16266 | 37132 ft | 462 kts | 171° |
| 2026-04-17 09:33 | 39.43860 | 11.17224 | 37141 ft | 461 kts | 172° |
| 2026-04-17 09:33 | 39.37480 | 11.18189 | 37140 ft | 460 kts | 172° |
| 2026-04-17 09:34 | 39.31126 | 11.19142 | 37135 ft | 460 kts | 172° |
| 2026-04-17 09:34 | 39.24790 | 11.20095 | 37135 ft | 460 kts | 172° |
| 2026-04-17 09:35 | 39.18429 | 11.21045 | 37135 ft | 459 kts | 172° |
| 2026-04-17 09:35 | 39.12052 | 11.21989 | 37135 ft | 459 kts | 172° |
| 2026-04-17 09:36 | 39.05729 | 11.22922 | 37132 ft | 459 kts | 172° |
| 2026-04-17 09:36 | 38.99348 | 11.23873 | 37142 ft | 459 kts | 172° |
| 2026-04-17 09:37 | 38.93007 | 11.24827 | 37139 ft | 459 kts | 172° |
| 2026-04-17 09:37 | 38.86693 | 11.25762 | 37138 ft | 458 kts | 172° |
| 2026-04-17 09:38 | 38.80348 | 11.26701 | 37139 ft | 458 kts | 172° |
| 2026-04-17 09:38 | 38.74013 | 11.27634 | 37139 ft | 458 kts | 172° |
| 2026-04-17 09:39 | 38.67673 | 11.28560 | 37141 ft | 458 kts | 172° |
| 2026-04-17 09:39 | 38.61356 | 11.29492 | 37141 ft | 458 kts | 172° |
| 2026-04-17 09:40 | 38.55039 | 11.30421 | 37150 ft | 458 kts | 172° |
| 2026-04-17 09:40 | 38.48719 | 11.31342 | 37141 ft | 458 kts | 172° |
| 2026-04-17 09:41 | 38.42356 | 11.32273 | 37140 ft | 458 kts | 172° |
| 2026-04-17 09:41 | 38.36044 | 11.33192 | 37137 ft | 459 kts | 172° |
| 2026-04-17 09:42 | 38.29662 | 11.34122 | 37143 ft | 459 kts | 172° |
| 2026-04-17 09:42 | 38.23327 | 11.35040 | 37141 ft | 460 kts | 172° |
| 2026-04-17 09:43 | 38.16946 | 11.35969 | 37142 ft | 460 kts | 172° |
| 2026-04-17 09:43 | 38.10615 | 11.36893 | 37145 ft | 460 kts | 172° |
| 2026-04-17 09:44 | 38.04233 | 11.37814 | 37139 ft | 461 kts | 172° |
| 2026-04-17 09:44 | 37.97848 | 11.38734 | 37139 ft | 461 kts | 172° |
| 2026-04-17 09:45 | 37.91476 | 11.38866 | 37135 ft | 463 kts | 187° |
| 2026-04-17 09:45 | 37.85145 | 11.37111 | 37136 ft | 464 kts | 193° |
| 2026-04-17 09:46 | 37.78860 | 11.35230 | 37132 ft | 464 kts | 192° |
| 2026-04-17 09:46 | 37.72565 | 11.33356 | 37140 ft | 464 kts | 192° |
| 2026-04-17 09:47 | 37.66279 | 11.31493 | 37145 ft | 465 kts | 192° |
| 2026-04-17 09:47 | 37.60007 | 11.29634 | 37131 ft | 465 kts | 193° |
| 2026-04-17 09:48 | 37.53710 | 11.27746 | 37135 ft | 465 kts | 193° |
| 2026-04-17 09:48 | 37.47409 | 11.25832 | 37145 ft | 465 kts | 193° |
| 2026-04-17 09:49 | 37.41124 | 11.23927 | 37153 ft | 465 kts | 193° |
| 2026-04-17 09:49 | 37.34809 | 11.22028 | 37142 ft | 465 kts | 193° |
| 2026-04-17 09:50 | 37.28501 | 11.20137 | 37146 ft | 466 kts | 193° |
| 2026-04-17 09:50 | 37.22190 | 11.18239 | 37143 ft | 466 kts | 193° |
| 2026-04-17 09:51 | 37.15898 | 11.16336 | 37145 ft | 466 kts | 193° |
| 2026-04-17 09:51 | 37.09585 | 11.14443 | 37148 ft | 466 kts | 193° |
| 2026-04-17 09:52 | 37.03301 | 11.12592 | 37149 ft | 465 kts | 193° |
| 2026-04-17 09:52 | 36.96988 | 11.10723 | 37140 ft | 465 kts | 193° |
| 2026-04-17 09:53 | 36.90713 | 11.08851 | 37141 ft | 465 kts | 193° |
| 2026-04-17 09:53 | 36.84394 | 11.06960 | 37141 ft | 466 kts | 193° |
| 2026-04-17 09:54 | 36.81262 | 11.06030 | 37009 ft | 466 kts | 193° |
| 2026-04-17 09:54 | 36.78098 | 11.05094 | 36741 ft | 466 kts | 193° |
| 2026-04-17 09:54 | 36.76001 | 11.04475 | 36571 ft | 466 kts | 193° |
| 2026-04-17 09:54 | 36.71812 | 11.03245 | 36242 ft | 465 kts | 193° |
| 2026-04-17 09:55 | 36.69720 | 11.02632 | 36076 ft | 464 kts | 193° |
| 2026-04-17 09:55 | 36.65536 | 11.01398 | 35752 ft | 464 kts | 193° |
| 2026-04-17 09:55 | 36.63415 | 11.00770 | 35586 ft | 463 kts | 193° |
| 2026-04-17 09:55 | 36.60306 | 10.99852 | 34961 ft | 465 kts | 192° |
| 2026-04-17 09:56 | 36.57107 | 10.98910 | 33716 ft | 477 kts | 192° |
| 2026-04-17 09:56 | 36.53860 | 10.97955 | 32975 ft | 474 kts | 192° |
| 2026-04-17 09:56 | 36.50714 | 10.97028 | 32569 ft | 464 kts | 192° |
| 2026-04-17 09:56 | 36.47595 | 10.96109 | 32088 ft | 457 kts | 191° |
| 2026-04-17 09:57 | 36.44520 | 10.95201 | 31588 ft | 451 kts | 191° |
| 2026-04-17 09:57 | 36.41480 | 10.94304 | 31097 ft | 444 kts | 191° |
| 2026-04-17 09:57 | 36.38492 | 10.93428 | 30634 ft | 438 kts | 191° |
| 2026-04-17 09:57 | 36.35552 | 10.92569 | 30183 ft | 431 kts | 191° |
| 2026-04-17 09:58 | 36.32643 | 10.91721 | 29640 ft | 425 kts | 190° |
| 2026-04-17 09:58 | 36.29779 | 10.90881 | 29069 ft | 421 kts | 191° |
| 2026-04-17 09:58 | 36.26945 | 10.90038 | 28492 ft | 417 kts | 191° |
| 2026-04-17 09:58 | 36.24134 | 10.89197 | 27935 ft | 414 kts | 191° |
| 2026-04-17 09:59 | 36.21345 | 10.88360 | 27392 ft | 410 kts | 191° |
| 2026-04-17 09:59 | 36.18584 | 10.87536 | 26861 ft | 406 kts | 191° |
| 2026-04-17 09:59 | 36.15900 | 10.86740 | 26618 ft | 396 kts | 191° |
| 2026-04-17 09:59 | 36.13262 | 10.85956 | 26479 ft | 383 kts | 191° |
| 2026-04-17 10:00 | 36.10693 | 10.85193 | 26161 ft | 377 kts | 191° |
| 2026-04-17 10:00 | 36.08153 | 10.84440 | 25755 ft | 373 kts | 191° |
| 2026-04-17 10:00 | 36.05641 | 10.83697 | 25323 ft | 370 kts | 191° |
| 2026-04-17 10:00 | 36.03137 | 10.82969 | 24881 ft | 367 kts | 189° |
| 2026-04-17 10:01 | 36.00619 | 10.82862 | 24459 ft | 360 kts | 168° |
| 2026-04-17 10:01 | 35.98284 | 10.83828 | 24035 ft | 352 kts | 148° |
| 2026-04-17 10:01 | 35.96334 | 10.85623 | 23573 ft | 348 kts | 138° |
| 2026-04-17 10:01 | 35.94504 | 10.87536 | 23007 ft | 348 kts | 139° |
| 2026-04-17 10:02 | 35.92650 | 10.89477 | 22439 ft | 349 kts | 139° |
| 2026-04-17 10:02 | 35.90793 | 10.91419 | 21943 ft | 349 kts | 138° |
| 2026-04-17 10:02 | 35.88951 | 10.93338 | 21370 ft | 344 kts | 138° |
| 2026-04-17 10:02 | 35.87142 | 10.95213 | 20732 ft | 337 kts | 138° |
| 2026-04-17 10:03 | 35.85332 | 10.97092 | 19840 ft | 341 kts | 138° |
| 2026-04-17 10:03 | 35.83531 | 10.98964 | 18981 ft | 344 kts | 137° |
| 2026-04-17 10:03 | 35.81684 | 11.00867 | 18077 ft | 347 kts | 138° |
| 2026-04-17 10:03 | 35.79797 | 11.02749 | 17109 ft | 350 kts | 140° |
| 2026-04-17 10:04 | 35.77881 | 11.04616 | 16156 ft | 352 kts | 139° |
| 2026-04-17 10:04 | 35.75945 | 11.06488 | 15227 ft | 354 kts | 140° |
| 2026-04-17 10:04 | 35.74084 | 11.08465 | 14333 ft | 351 kts | 129° |
| 2026-04-17 10:04 | 35.72836 | 11.10962 | 13392 ft | 345 kts | 108° |
| 2026-04-17 10:05 | 35.72368 | 11.13821 | 12446 ft | 338 kts | 88° |
| 2026-04-17 10:05 | 35.72722 | 11.16650 | 11546 ft | 329 kts | 68° |
| 2026-04-17 10:05 | 35.73766 | 11.19067 | 10702 ft | 321 kts | 50° |
| 2026-04-17 10:05 | 35.75366 | 11.20929 | 9885 ft | 313 kts | 32° |
| 2026-04-17 10:06 | 35.77316 | 11.22047 | 9020 ft | 307 kts | 14° |
| 2026-04-17 10:06 | 35.79410 | 11.22355 | 8194 ft | 301 kts | 357° |
| 2026-04-17 10:06 | 35.81447 | 11.21876 | 7403 ft | 297 kts | 341° |
| 2026-04-17 10:06 | 35.83253 | 11.20675 | 6639 ft | 294 kts | 324° |
| 2026-04-17 10:07 | 35.84651 | 11.18909 | 5861 ft | 292 kts | 308° |
| 2026-04-17 10:07 | 35.85580 | 11.16687 | 5080 ft | 292 kts | 291° |
| 2026-04-17 10:07 | 35.85940 | 11.14226 | 4292 ft | 293 kts | 274° |
| 2026-04-17 10:07 | 35.85694 | 11.11778 | 3892 ft | 280 kts | 260° |
| 2026-04-17 10:08 | 35.85189 | 11.09561 | 3808 ft | 254 kts | 256° |
| 2026-04-17 10:08 | 35.84651 | 11.07581 | 3605 ft | 236 kts | 255° |
| 2026-04-17 10:08 | 35.84119 | 11.05699 | 3334 ft | 230 kts | 255° |
| 2026-04-17 10:08 | 35.83606 | 11.03881 | 3080 ft | 224 kts | 255° |
| 2026-04-17 10:09 | 35.83101 | 11.02071 | 3002 ft | 223 kts | 256° |
| 2026-04-17 10:09 | 35.82600 | 11.00255 | 2983 ft | 225 kts | 255° |
| 2026-04-17 10:09 | 35.81892 | 10.98515 | 2733 ft | 228 kts | 245° |
| 2026-04-17 10:09 | 35.81251 | 10.96750 | 2481 ft | 223 kts | 256° |
| 2026-04-17 10:10 | 35.80795 | 10.94945 | 2229 ft | 218 kts | 257° |
| 2026-04-17 10:10 | 35.80368 | 10.93185 | 1979 ft | 214 kts | 259° |
| 2026-04-17 10:10 | 35.79951 | 10.91441 | 1762 ft | 209 kts | 259° |
| 2026-04-17 10:11 | 35.79180 | 10.88247 | 1714 ft | 175 kts | 261° |
| 2026-04-17 10:11 | 35.78851 | 10.86904 | 1686 ft | 153 kts | 261° |
| 2026-04-17 10:11 | 35.78534 | 10.85694 | 1537 ft | 146 kts | 259° |
| 2026-04-17 10:11 | 35.78215 | 10.84527 | 1447 ft | 141 kts | 259° |
| 2026-04-17 10:12 | 35.77911 | 10.83400 | 1231 ft | 139 kts | 260° |
| 2026-04-17 10:12 | 35.77606 | 10.82282 | 969 ft | 138 kts | 256° |
| 2026-04-17 10:12 | 35.77256 | 10.81168 | 752 ft | 139 kts | 255° |
| 2026-04-17 10:12 | 35.76916 | 10.80077 | 624 ft | 133 kts | 256° |
| 2026-04-17 10:13 | 35.76630 | 10.78998 | 383 ft | 133 kts | 260° |
| 2026-04-17 10:13 | 35.76385 | 10.77902 | 173 ft | 133 kts | 259° |
| 2026-04-17 10:13 | 35.76120 | 10.76803 | 38 ft | 133 kts | 259° |
| 2026-04-17 10:13 | 35.75889 | 10.75820 | 10 ft | 96 kts | 252° |
| 2026-04-17 10:14 | 35.75737 | 10.75200 | 15 ft | 59 kts | 254° |
| 2026-04-17 10:14 | 35.75643 | 10.74807 | 13 ft | 32 kts | 252° |
| 2026-04-17 10:14 | 35.75594 | 10.74611 | 12 ft | 16 kts | 253° |
| 2026-04-17 10:14 | 35.75621 | 10.74519 | 10 ft | 13 kts | 339° |
| 2026-04-17 10:15 | 35.75680 | 10.74496 | 12 ft | 8 kts | 342° |
| 2026-04-17 10:15 | 35.75728 | 10.74501 | 10 ft | 8 kts | 39° |
| 2026-04-17 10:15 | 35.75751 | 10.74554 | 10 ft | 7 kts | 72° |
| 2026-04-17 10:15 | 35.75771 | 10.74634 | 11 ft | 18 kts | 73° |
| 2026-04-17 10:16 | 35.75802 | 10.74768 | 10 ft | 13 kts | 83° |
| 2026-04-17 10:16 | 35.75800 | 10.74873 | 11 ft | 12 kts | 78° |
| 2026-04-17 10:16 | 35.75822 | 10.74962 | 11 ft | 10 kts | 72° |
| 2026-04-17 10:16 | 35.75846 | 10.75059 | 11 ft | 12 kts | 73° |
| 2026-04-17 10:17 | 35.75869 | 10.75156 | 11 ft | 10 kts | 73° |
| 2026-04-17 10:17 | 35.75887 | 10.75233 | 11 ft | 9 kts | 74° |
| 2026-04-17 10:17 | 35.75903 | 10.75289 | 11 ft | 4 kts | 50° |
| 2026-04-17 10:17 | 35.75934 | 10.75292 | 10 ft | 6 kts | 348° |
| 2026-04-17 10:18 | 35.75967 | 10.75280 | 11 ft | 4 kts | 343° |
| 2026-04-17 10:18 | 35.75971 | 10.75279 | 12 ft | 0 kts | 344° |